createdAt,value
2018-06-20T00:00:15.920Z,12.90
2018-06-20T00:02:45.071Z,14.00
2018-06-20T00:05:13.832Z,17.70
2018-06-20T00:07:42.589Z,12.63
2018-06-20T00:10:11.294Z,17.43
2018-06-20T00:12:40.131Z,14.67
2018-06-20T00:15:08.950Z,11.90
2018-06-20T00:17:37.681Z,11.63
2018-06-20T00:20:06.395Z,10.70
2018-06-20T00:22:35.128Z,13.67
2018-06-20T00:25:04.325Z,17.97
2018-06-20T00:27:33.082Z,14.80
2018-06-20T00:30:01.846Z,13.47
2018-06-20T00:32:30.586Z,11.80
2018-06-20T00:34:59.427Z,13.20
2018-06-20T00:37:28.148Z,11.53
2018-06-20T00:39:56.902Z,11.83
2018-06-20T00:42:25.628Z,11.70
2018-06-20T00:44:54.374Z,12.53
2018-06-20T00:47:23.122Z,12.50
2018-06-20T00:49:51.895Z,17.03
2018-06-20T00:52:20.669Z,13.63
2018-06-20T00:54:49.395Z,13.13
2018-06-20T00:57:18.144Z,16.43
2018-06-20T00:59:46.914Z,12.67
2018-06-20T01:02:15.722Z,17.30
2018-06-20T01:04:44.491Z,15.93
2018-06-20T01:07:13.234Z,13.37
2018-06-20T01:09:41.970Z,13.03
2018-06-20T01:12:10.752Z,13.70
2018-06-20T01:14:39.488Z,12.90
2018-06-20T01:17:08.251Z,15.83
2018-06-20T01:19:37.042Z,12.70
2018-06-20T01:22:05.854Z,12.90
2018-06-20T01:24:34.649Z,12.77
2018-06-20T01:27:03.375Z,16.97
2018-06-20T01:29:32.126Z,13.67
2018-06-20T01:32:00.976Z,11.73
2018-06-20T01:34:29.731Z,12.10
2018-06-20T01:36:58.487Z,11.50
2018-06-20T01:39:27.274Z,14.53
2018-06-20T01:41:56.031Z,14.47
2018-06-20T01:44:24.827Z,11.70
2018-06-20T01:46:53.857Z,11.70
2018-06-20T01:49:22.601Z,12.67
2018-06-20T01:51:51.361Z,12.80
2018-06-20T01:54:20.094Z,11.03
2018-06-20T01:56:48.873Z,11.53
2018-06-20T01:59:17.613Z,15.53
2018-06-20T02:01:46.343Z,16.13
2018-06-20T02:04:15.062Z,15.93
2018-06-20T02:06:43.861Z,11.57
2018-06-20T02:09:12.626Z,19.60
2018-06-20T02:11:42.434Z,12.00
2018-06-20T02:14:11.219Z,10.90
2018-06-20T02:16:39.970Z,16.10
2018-06-20T02:19:08.794Z,11.30
2018-06-20T02:21:37.582Z,12.53
2018-06-20T02:24:06.347Z,13.03
2018-06-20T02:26:35.222Z,11.17
2018-06-20T02:29:04.007Z,10.37
2018-06-20T02:31:32.778Z,12.07
2018-06-20T02:34:01.586Z,17.90
2018-06-20T02:36:32.298Z,11.00
2018-06-20T02:39:02.696Z,15.97
2018-06-20T02:41:31.450Z,11.90
2018-06-20T02:44:00.211Z,14.43
2018-06-20T02:46:28.968Z,14.60
2018-06-20T02:48:57.772Z,13.50
2018-06-20T02:51:26.510Z,15.97
2018-06-20T02:53:55.288Z,23.23
2018-06-20T02:56:24.347Z,16.20
2018-06-20T02:58:53.211Z,16.80
2018-06-20T03:01:21.947Z,19.23
2018-06-20T03:03:50.719Z,14.43
2018-06-20T03:06:19.470Z,18.23
2018-06-20T03:08:53.535Z,17.40
2018-06-20T03:11:22.296Z,16.73
2018-06-20T03:13:51.031Z,15.43
2018-06-20T03:16:20.745Z,21.40
2018-06-20T03:18:49.519Z,20.73
2018-06-20T03:21:18.540Z,16.93
2018-06-20T03:23:47.274Z,15.27
2018-06-20T03:26:16.009Z,19.63
2018-06-20T03:28:44.777Z,16.43
2018-06-20T03:31:13.667Z,18.07
2018-06-20T03:33:42.431Z,22.47
2018-06-20T03:36:11.211Z,19.33
2018-06-20T03:38:39.946Z,20.40
2018-06-20T03:41:09.482Z,17.93
2018-06-20T03:43:38.283Z,18.77
2018-06-20T03:46:07.043Z,20.47
2018-06-20T03:48:35.778Z,24.00
2018-06-20T03:51:04.536Z,18.00
2018-06-20T03:53:33.264Z,17.20
2018-06-20T03:56:02.034Z,16.43
2018-06-20T03:58:30.791Z,22.33
2018-06-20T04:00:59.625Z,15.90
2018-06-20T04:03:28.389Z,17.60
2018-06-20T04:05:57.138Z,19.23
2018-06-20T04:08:25.927Z,19.73
2018-06-20T04:10:54.686Z,19.53
2018-06-20T04:13:23.418Z,16.47
2018-06-20T04:15:52.258Z,20.87
2018-06-20T04:18:21.077Z,21.70
2018-06-20T04:20:49.958Z,22.63
2018-06-20T04:23:25.192Z,16.67
2018-06-20T04:25:53.931Z,18.27
2018-06-20T04:28:22.817Z,19.43
2018-06-20T04:30:51.635Z,22.97
2018-06-20T04:33:20.364Z,17.37
2018-06-20T04:35:49.841Z,23.37
2018-06-20T04:38:18.622Z,16.73
2018-06-20T04:40:47.539Z,22.20
2018-06-20T04:43:16.305Z,22.67
2018-06-20T04:45:45.058Z,22.93
2018-06-20T04:48:13.770Z,17.70
2018-06-20T04:50:42.563Z,22.00
2018-06-20T04:53:11.308Z,24.60
2018-06-20T04:55:40.209Z,16.73
2018-06-20T04:58:09.144Z,17.33
2018-06-20T05:00:37.919Z,15.60
2018-06-20T05:03:06.654Z,22.17
2018-06-20T05:05:35.427Z,23.80
2018-06-20T05:08:04.348Z,17.77
2018-06-20T05:10:33.143Z,21.20
2018-06-20T05:13:01.890Z,20.90
2018-06-20T05:15:31.152Z,18.27
2018-06-20T05:17:59.962Z,17.20
2018-06-20T05:20:28.734Z,15.10
2018-06-20T05:22:57.493Z,15.33
2018-06-20T05:25:26.309Z,12.47
2018-06-20T05:27:55.208Z,14.53
2018-06-20T05:30:23.954Z,12.53
2018-06-20T05:32:52.761Z,18.57
2018-06-20T05:35:21.603Z,13.93
2018-06-20T05:37:50.396Z,16.10
2018-06-20T05:40:19.171Z,17.87
2018-06-20T05:42:47.921Z,16.10
2018-06-20T05:45:16.793Z,20.40
2018-06-20T05:47:45.606Z,15.33
2018-06-20T05:50:14.421Z,21.07
2018-06-20T05:52:43.196Z,23.73
2018-06-20T05:55:12.047Z,22.87
2018-06-20T05:57:40.821Z,20.27
2018-06-20T06:00:09.587Z,19.43
2018-06-20T06:02:38.369Z,20.53
2018-06-20T06:05:07.360Z,26.00
2018-06-20T06:07:39.001Z,22.67
2018-06-20T06:10:11.872Z,19.00
2018-06-20T06:12:40.638Z,22.23
2018-06-20T06:15:09.449Z,21.30
2018-06-20T06:17:38.233Z,23.23
2018-06-20T06:20:07.599Z,21.63
2018-06-20T06:22:36.402Z,22.70
2018-06-20T06:25:05.221Z,22.27
2018-06-20T06:27:34.503Z,22.43
2018-06-20T06:30:04.897Z,21.93
2018-06-20T06:32:33.664Z,23.20
2018-06-20T06:35:02.435Z,15.73
2018-06-20T06:37:31.191Z,17.43
2018-06-20T06:39:59.906Z,28.07
2018-06-20T06:42:28.732Z,17.40
2018-06-20T06:44:57.500Z,22.13
2018-06-20T06:47:26.286Z,19.07
2018-06-20T06:49:55.104Z,19.30
2018-06-20T06:52:24.048Z,19.83
2018-06-20T06:54:52.790Z,17.53
2018-06-20T06:57:21.587Z,20.50
2018-06-20T06:59:50.334Z,18.10
2018-06-20T07:02:19.101Z,27.40
2018-06-20T07:04:48.091Z,20.70
2018-06-20T07:07:16.802Z,15.33
2018-06-20T07:09:45.730Z,14.03
2018-06-20T07:12:14.494Z,14.93
2018-06-20T07:14:43.236Z,16.77
2018-06-20T07:17:12.006Z,15.03
2018-06-20T07:19:41.035Z,12.57
2018-06-20T07:22:09.795Z,14.60
2018-06-20T07:24:38.715Z,13.50
2018-06-20T07:27:08.032Z,13.33
2018-06-20T07:29:36.878Z,12.37
2018-06-20T07:32:05.707Z,11.60
2018-06-20T07:34:34.553Z,16.93
2018-06-20T07:37:03.526Z,12.30
2018-06-20T07:39:32.302Z,13.20
2018-06-20T07:42:01.158Z,14.17
2018-06-20T07:44:29.922Z,13.57
2018-06-20T07:46:58.687Z,13.83
2018-06-20T07:49:27.492Z,13.57
2018-06-20T07:51:56.267Z,10.00
2018-06-20T07:54:25.020Z,11.63
2018-06-20T07:56:53.823Z,10.97
2018-06-20T07:59:22.664Z,15.43
2018-06-20T08:02:07.939Z,14.40
2018-06-20T08:04:41.919Z,9.10
2018-06-20T08:07:15.917Z,12.40
2018-06-20T08:09:49.878Z,15.43
2018-06-20T08:12:23.820Z,11.73
2018-06-20T08:14:57.971Z,13.13
2018-06-20T08:17:31.983Z,10.73
2018-06-20T08:20:02.015Z,12.40
2018-06-20T08:22:30.767Z,11.60
2018-06-20T08:25:04.002Z,11.03
2018-06-20T08:27:33.683Z,10.77
2018-06-20T08:30:04.561Z,12.87
2018-06-20T08:32:34.137Z,8.50
2018-06-20T08:35:03.246Z,9.70
2018-06-20T08:37:32.348Z,13.57
2018-06-20T08:40:01.718Z,11.90
2018-06-20T08:42:30.516Z,15.00
2018-06-20T08:44:59.415Z,10.63
2018-06-20T08:47:28.154Z,13.43
2018-06-20T08:49:56.925Z,12.00
2018-06-20T08:52:26.003Z,9.20
2018-06-20T08:54:54.802Z,8.13
2018-06-20T08:57:23.774Z,11.03
2018-06-20T08:59:52.543Z,8.30
2018-06-20T09:02:21.300Z,7.83
2018-06-20T09:04:55.171Z,12.00
2018-06-20T09:07:29.985Z,7.70
2018-06-20T09:10:03.917Z,7.23
2018-06-20T09:13:41.400Z,8.20
2018-06-20T09:16:15.448Z,8.27
2018-06-20T09:18:49.362Z,11.57
2018-06-20T09:21:18.118Z,8.10
2018-06-20T09:23:46.877Z,7.73
2018-06-20T09:26:15.662Z,6.10
2018-06-20T09:28:44.434Z,5.93
2018-06-20T09:31:13.185Z,6.73
2018-06-20T09:33:42.049Z,8.37
2018-06-20T09:36:11.966Z,8.33
2018-06-20T09:38:40.788Z,7.83
2018-06-20T09:41:09.723Z,6.63
2018-06-20T09:43:38.527Z,7.27
2018-06-20T09:46:07.596Z,5.90
2018-06-20T09:48:36.421Z,5.90
2018-06-20T09:51:05.160Z,6.37
2018-06-20T09:53:33.931Z,7.20
2018-06-20T09:56:02.671Z,6.23
2018-06-20T09:58:31.428Z,8.47
2018-06-20T10:01:05.487Z,7.43
2018-06-20T10:03:39.389Z,5.83
2018-06-20T10:06:13.542Z,10.00
2018-06-20T10:08:47.546Z,5.90
2018-06-20T10:11:21.544Z,7.83
2018-06-20T10:13:53.448Z,5.50
2018-06-20T10:16:22.264Z,7.03
2018-06-20T10:18:51.679Z,5.33
2018-06-20T10:21:20.539Z,10.80
2018-06-20T10:23:49.410Z,13.60
2018-06-20T10:26:18.178Z,5.20
2018-06-20T10:28:46.986Z,9.13
2018-06-20T10:31:15.767Z,7.67
2018-06-20T10:33:44.700Z,4.90
2018-06-20T10:36:13.480Z,8.67
2018-06-20T10:38:42.263Z,7.30
2018-06-20T10:41:10.983Z,6.00
2018-06-20T10:43:39.787Z,4.17
2018-06-20T10:46:13.817Z,4.27
2018-06-20T10:48:42.739Z,7.80
2018-06-20T10:51:11.486Z,6.53
2018-06-20T10:53:40.223Z,8.00
2018-06-20T10:56:09.382Z,8.90
2018-06-20T10:58:43.204Z,7.53
2018-06-20T11:01:17.147Z,6.47
2018-06-20T11:04:48.829Z,4.30
2018-06-20T11:07:22.712Z,7.27
2018-06-20T11:09:56.659Z,7.93
2018-06-20T11:12:30.561Z,5.20
2018-06-20T11:14:59.334Z,4.60
2018-06-20T11:17:28.125Z,8.13
2018-06-20T11:20:00.250Z,6.57
2018-06-20T11:22:29.154Z,7.00
2018-06-20T11:24:57.933Z,9.30
2018-06-20T11:27:26.692Z,5.87
2018-06-20T11:29:55.442Z,5.40
2018-06-20T11:32:24.321Z,4.77
2018-06-20T11:34:53.106Z,5.07
2018-06-20T11:37:22.152Z,8.40
2018-06-20T11:39:50.992Z,6.33
2018-06-20T11:42:19.715Z,6.33
2018-06-20T11:44:48.525Z,4.47
2018-06-20T11:47:22.509Z,4.33
2018-06-20T11:49:51.262Z,6.60
2018-06-20T11:52:25.395Z,5.33
2018-06-20T11:58:35.470Z,6.07
2018-06-20T12:01:09.499Z,4.93
2018-06-20T12:04:44.178Z,7.33
2018-06-20T12:07:18.177Z,9.77
2018-06-20T12:09:52.134Z,6.60
2018-06-20T12:13:24.793Z,6.10
2018-06-20T12:15:58.777Z,4.97
2018-06-20T12:18:32.790Z,6.70
2018-06-20T12:21:06.750Z,18.83
2018-06-20T12:23:40.770Z,4.53
2018-06-20T12:26:14.627Z,12.87
2018-06-20T12:28:48.455Z,4.57
2018-06-20T12:31:22.486Z,5.60
2018-06-20T12:33:56.394Z,5.87
2018-06-20T12:36:30.207Z,5.10
2018-06-20T12:39:01.060Z,5.20
2018-06-20T12:41:37.588Z,5.40
2018-06-20T12:44:11.719Z,4.03
2018-06-20T12:47:46.560Z,5.17
2018-06-20T12:50:19.445Z,6.33
2018-06-20T12:52:48.299Z,6.13
2018-06-20T12:55:17.127Z,6.50
2018-06-20T12:57:46.026Z,5.97
2018-06-20T13:00:15.271Z,5.60
2018-06-20T13:02:44.379Z,5.27
2018-06-20T13:05:13.179Z,5.53
2018-06-20T13:07:42.316Z,7.77
2018-06-20T13:10:11.083Z,4.43
2018-06-20T13:12:39.807Z,5.60
2018-06-20T13:15:08.582Z,5.93
2018-06-20T13:17:38.147Z,6.57
2018-06-20T13:20:06.972Z,8.13
2018-06-20T13:22:35.911Z,5.13
2018-06-20T13:25:04.904Z,4.80
2018-06-20T13:27:38.915Z,4.50
2018-06-20T13:30:10.980Z,7.43
2018-06-20T13:32:44.906Z,4.97
2018-06-20T13:35:18.846Z,5.67
2018-06-20T13:37:52.713Z,5.00
2018-06-20T13:40:26.696Z,5.30
2018-06-20T13:43:00.591Z,6.33
2018-06-20T13:45:34.484Z,4.67
2018-06-20T13:48:08.460Z,4.50
2018-06-20T13:50:37.231Z,7.70
2018-06-20T13:53:05.983Z,10.17
2018-06-20T13:55:34.968Z,6.37
2018-06-20T13:58:03.786Z,5.43
2018-06-20T14:00:32.591Z,5.27
2018-06-20T14:03:01.322Z,5.67
2018-06-20T14:05:30.082Z,9.90
2018-06-20T14:07:58.853Z,7.37
2018-06-20T14:10:28.184Z,5.53
2018-06-20T14:12:56.975Z,4.87
2018-06-20T14:15:25.762Z,7.37
2018-06-20T14:17:54.908Z,7.20
2018-06-20T14:20:28.982Z,8.43
2018-06-20T14:22:57.798Z,8.37
2018-06-20T14:25:26.541Z,7.20
2018-06-20T14:27:55.312Z,6.03
2018-06-20T14:30:29.890Z,13.87
2018-06-20T14:33:03.841Z,9.30
2018-06-20T14:35:37.785Z,7.23
2018-06-20T14:38:11.834Z,7.87
2018-06-20T14:40:45.971Z,5.37
2018-06-20T14:43:20.030Z,8.20
2018-06-20T14:45:53.898Z,5.93
2018-06-20T14:48:22.709Z,8.90
2018-06-20T14:50:51.476Z,5.33
2018-06-20T14:53:20.367Z,5.60
2018-06-20T14:55:49.705Z,5.37
2018-06-20T14:58:18.450Z,4.70
2018-06-20T15:00:47.255Z,6.57
2018-06-20T15:03:16.236Z,6.93
2018-06-20T15:05:44.994Z,7.13
2018-06-20T15:08:13.849Z,6.00
2018-06-20T15:10:42.608Z,6.63
2018-06-20T15:13:17.890Z,9.13
2018-06-20T15:15:46.683Z,11.13
2018-06-20T15:18:15.683Z,5.50
2018-06-20T15:20:44.624Z,5.57
2018-06-20T15:23:13.449Z,6.27
2018-06-20T15:25:46.331Z,5.67
2018-06-20T15:28:20.379Z,7.87
2018-06-20T15:30:54.407Z,9.80
2018-06-20T15:33:28.334Z,6.93
2018-06-20T15:36:02.391Z,5.50
2018-06-20T15:38:31.174Z,7.67
2018-06-20T15:41:00.280Z,5.87
2018-06-20T15:43:29.050Z,6.00
2018-06-20T15:45:57.816Z,7.80
2018-06-20T15:48:26.631Z,10.60
2018-06-20T15:50:55.458Z,6.43
2018-06-20T15:53:24.253Z,6.10
2018-06-20T15:55:52.975Z,6.93
2018-06-20T15:58:21.786Z,6.00
2018-06-20T16:00:50.885Z,6.63
2018-06-20T16:03:20.046Z,6.67
2018-06-20T16:05:48.893Z,8.17
2018-06-20T16:08:17.756Z,5.23
2018-06-20T16:10:46.578Z,6.03
2018-06-20T16:13:15.571Z,5.80
2018-06-20T16:15:44.349Z,5.73
2018-06-20T16:18:13.090Z,6.70
2018-06-20T16:20:47.718Z,5.90
2018-06-20T16:23:21.802Z,5.87
2018-06-20T16:26:54.468Z,7.80
2018-06-20T16:29:28.416Z,6.97
2018-06-20T16:31:57.226Z,6.70
2018-06-20T16:34:26.022Z,7.87
2018-06-20T16:36:54.810Z,5.67
2018-06-20T16:39:23.547Z,5.83
2018-06-20T16:41:52.316Z,8.27
2018-06-20T16:44:21.106Z,6.03
2018-06-20T16:46:50.019Z,6.90
2018-06-20T16:49:18.832Z,8.43
2018-06-20T16:51:48.171Z,6.00
2018-06-20T16:54:16.891Z,6.20
2018-06-20T16:56:45.676Z,8.00
2018-06-20T16:59:14.614Z,5.67
2018-06-20T17:01:48.679Z,7.43
2018-06-20T17:04:17.848Z,6.17
2018-06-20T17:06:46.670Z,7.33
2018-06-20T17:09:15.434Z,10.13
2018-06-20T17:11:48.340Z,6.30
2018-06-20T17:14:22.303Z,6.33
2018-06-20T17:16:56.062Z,7.57
2018-06-20T17:19:29.983Z,6.90
2018-06-20T17:22:03.889Z,7.03
2018-06-20T17:24:37.832Z,9.83
2018-06-20T17:27:06.769Z,8.60
2018-06-20T17:29:35.648Z,6.93
2018-06-20T17:32:04.445Z,5.93
2018-06-20T17:34:33.273Z,6.37
2018-06-20T17:37:02.059Z,6.63
2018-06-20T17:39:30.782Z,6.27
2018-06-20T17:41:59.580Z,5.70
2018-06-20T17:44:28.327Z,9.70
2018-06-20T17:46:57.135Z,8.07
2018-06-20T17:49:25.889Z,7.10
2018-06-20T17:51:54.626Z,6.73
2018-06-20T17:54:23.368Z,7.87
2018-06-20T17:56:52.540Z,7.60
2018-06-20T17:59:21.294Z,7.03
2018-06-20T18:01:50.206Z,8.20
2018-06-20T18:05:22.762Z,6.97
2018-06-20T18:07:56.782Z,7.53
2018-06-20T18:10:30.855Z,10.07
2018-06-20T18:13:04.284Z,10.03
2018-06-20T18:15:38.638Z,9.17
2018-06-20T18:18:07.800Z,9.10
2018-06-20T18:20:37.818Z,10.20
2018-06-20T18:23:07.671Z,10.37
2018-06-20T18:25:36.443Z,16.77
2018-06-20T18:28:05.222Z,13.90
2018-06-20T18:30:34.215Z,12.47
2018-06-20T18:33:03.078Z,13.63
2018-06-20T18:35:31.834Z,12.67
2018-06-20T18:38:01.543Z,13.07
2018-06-20T18:40:30.335Z,13.33
2018-06-20T18:42:59.121Z,16.30
2018-06-20T18:45:28.362Z,13.90
2018-06-20T18:48:02.383Z,17.33
2018-06-20T18:50:31.151Z,12.77
2018-06-20T18:52:59.943Z,18.53
2018-06-20T18:55:28.889Z,9.40
2018-06-20T18:58:02.876Z,17.80
2018-06-20T19:00:36.881Z,15.67
2018-06-20T19:03:11.004Z,14.77
2018-06-20T19:05:45.110Z,16.93
2018-06-20T19:08:19.144Z,14.57
2018-06-20T19:10:48.606Z,19.53
2018-06-20T19:13:17.450Z,20.40
2018-06-20T19:15:46.435Z,16.90
2018-06-20T19:18:16.123Z,18.37
2018-06-20T19:20:44.909Z,13.50
2018-06-20T19:23:13.789Z,14.97
2018-06-20T19:25:42.573Z,14.47
2018-06-20T19:28:11.321Z,15.27
2018-06-20T19:30:40.079Z,14.57
2018-06-20T19:33:08.925Z,16.47
2018-06-20T19:35:37.932Z,12.50
2018-06-20T19:38:07.022Z,19.87
2018-06-20T19:40:35.717Z,9.70
2018-06-20T19:43:04.500Z,14.37
2018-06-20T19:45:33.310Z,9.17
2018-06-20T19:48:02.060Z,11.13
2018-06-20T19:50:30.824Z,16.43
2018-06-20T19:52:59.954Z,15.93
2018-06-20T19:55:28.714Z,11.03
2018-06-20T19:57:57.489Z,11.17
2018-06-20T20:00:26.235Z,11.07
2018-06-20T20:02:54.986Z,10.03
2018-06-20T20:05:23.750Z,13.13
2018-06-20T20:07:52.478Z,12.93
2018-06-20T20:10:21.236Z,13.37
2018-06-20T20:12:50.128Z,15.13
2018-06-20T20:15:19.130Z,11.00
2018-06-20T20:17:48.354Z,14.87
2018-06-20T20:20:17.212Z,14.53
2018-06-20T20:22:45.927Z,13.77
2018-06-20T20:25:16.370Z,13.90
2018-06-20T20:27:45.122Z,12.07
2018-06-20T20:30:13.970Z,14.23
2018-06-20T20:32:42.758Z,13.30
2018-06-20T20:35:11.578Z,19.90
2018-06-20T20:37:40.317Z,13.53
2018-06-20T20:40:09.062Z,15.00
2018-06-20T20:42:38.806Z,17.47
2018-06-20T20:45:07.579Z,12.83
2018-06-20T20:47:36.346Z,16.77
2018-06-20T20:50:05.142Z,13.20
2018-06-20T20:52:33.882Z,14.07
2018-06-20T20:55:02.615Z,21.47
2018-06-20T20:57:31.953Z,19.10
2018-06-20T21:00:07.175Z,12.47
2018-06-20T21:02:35.959Z,16.10
2018-06-20T21:05:04.821Z,13.23
2018-06-20T21:07:33.580Z,11.67
2018-06-20T21:10:02.376Z,16.03
2018-06-20T21:12:31.194Z,15.87
2018-06-20T21:14:59.943Z,10.43
2018-06-20T21:17:28.727Z,10.70
2018-06-20T21:19:57.521Z,11.40
2018-06-20T21:22:26.567Z,9.43
2018-06-20T21:24:55.350Z,11.90
2018-06-20T21:27:24.144Z,22.13
2018-06-20T21:29:53.043Z,11.40
2018-06-20T21:32:21.987Z,10.13
2018-06-20T21:34:51.126Z,10.93
2018-06-20T21:37:20.498Z,9.47
2018-06-20T21:39:49.289Z,12.20
2018-06-20T21:42:18.067Z,13.03
2018-06-20T21:44:46.795Z,11.67
2018-06-20T21:47:15.526Z,14.93
2018-06-20T21:49:44.294Z,9.93
2018-06-20T21:52:13.055Z,9.07
2018-06-20T21:54:41.787Z,11.67
2018-06-20T21:57:10.591Z,10.13
2018-06-20T21:59:39.527Z,11.37
2018-06-20T22:02:08.330Z,12.03
2018-06-20T22:04:37.102Z,13.13
2018-06-20T22:07:05.861Z,9.40
2018-06-20T22:09:34.592Z,12.13
2018-06-20T22:12:03.352Z,11.93
2018-06-20T22:14:32.100Z,10.73
2018-06-20T22:17:00.907Z,11.03
2018-06-20T22:19:29.662Z,10.30
2018-06-20T22:21:58.432Z,13.30
2018-06-20T22:24:27.134Z,12.57
2018-06-20T22:26:55.868Z,10.43
2018-06-20T22:29:24.644Z,12.93
2018-06-20T22:31:53.403Z,12.20
2018-06-20T22:34:22.141Z,9.73
2018-06-20T22:36:50.918Z,13.10
2018-06-20T22:39:19.732Z,14.20
2018-06-20T22:41:48.464Z,9.93
2018-06-20T22:44:17.266Z,11.43
2018-06-20T22:46:46.139Z,12.27
2018-06-20T22:49:14.875Z,15.13
2018-06-20T22:51:43.605Z,11.80
2018-06-20T22:54:12.434Z,16.57
2018-06-20T22:56:42.263Z,15.37
2018-06-20T22:59:11.184Z,14.80
2018-06-20T23:01:39.924Z,12.33
2018-06-20T23:04:08.733Z,18.50
2018-06-20T23:06:37.467Z,13.10
2018-06-20T23:09:08.650Z,14.93
2018-06-20T23:11:42.649Z,12.27
2018-06-20T23:14:11.432Z,12.20
2018-06-20T23:16:40.410Z,17.37
2018-06-20T23:19:09.659Z,11.87
2018-06-20T23:21:38.428Z,15.13
2018-06-20T23:24:07.262Z,15.67
2018-06-20T23:26:36.050Z,12.13
2018-06-20T23:29:04.825Z,14.13
2018-06-20T23:31:33.592Z,12.13
2018-06-20T23:34:02.396Z,15.43
2018-06-20T23:36:31.109Z,13.43
2018-06-20T23:38:59.839Z,14.07
2018-06-20T23:41:28.586Z,13.27
2018-06-20T23:43:57.323Z,15.37
2018-06-20T23:46:26.120Z,13.93
2018-06-20T23:48:54.887Z,14.40
2018-06-20T23:51:23.673Z,12.20
2018-06-20T23:53:52.478Z,14.20
2018-06-20T23:56:21.178Z,13.00
2018-06-20T23:58:49.909Z,17.90
